Time;durP1;ratioP1;P1;durP2;ratioP2;P2;SDS_P1;SDS_P2;PMS_P1;PMS_P2;Temp;Humidity;BMP_temperature;BMP_pressure;BME280_temperature;BME280_humidity;BME280_pressure;Samples;Min_cycle;Max_cycle;Signal;HPM_P1;HPM_P2
2021/08/14 00:00:49;;;;;;;13.13;4.85;;;14.60;99.90;;;;;;5003606;28;20125;-86
2021/08/14 00:03:14;;;;;;;18.80;6.82;;;14.70;99.90;;;;;;5016294;28;20080;-86
2021/08/14 00:05:40;;;;;;;14.98;5.72;;;14.70;99.90;;;;;;5014123;28;20418;-85
2021/08/14 00:08:05;;;;;;;13.80;4.45;;;14.70;99.90;;;;;;5009393;28;20034;-86
2021/08/14 00:10:31;;;;;;;10.57;4.55;;;14.70;99.90;;;;;;5008458;28;20027;-86
2021/08/14 00:12:56;;;;;;;12.30;4.05;;;14.70;99.90;;;;;;5013834;28;20029;-85
2021/08/14 00:15:22;;;;;;;11.45;4.60;;;14.70;99.90;;;;;;5015310;28;20025;-86
2021/08/14 00:17:48;;;;;;;22.83;6.00;;;14.70;99.90;;;;;;5015650;28;20026;-86
2021/08/14 00:20:13;;;;;;;15.65;5.75;;;14.70;99.90;;;;;;5014316;28;20053;-86
2021/08/14 00:22:39;;;;;;;17.17;5.68;;;14.70;99.90;;;;;;5011966;28;20115;-86
2021/08/14 00:25:06;;;;;;;17.63;6.05;;;14.60;99.90;;;;;;5012989;28;20044;-86
2021/08/14 00:27:31;;;;;;;15.10;5.55;;;14.60;99.90;;;;;;5007759;28;20488;-86
2021/08/14 00:29:57;;;;;;;15.95;5.30;;;14.60;99.90;;;;;;5010300;28;20018;-86
2021/08/14 00:32:22;;;;;;;14.60;5.60;;;14.60;99.90;;;;;;5015372;28;20048;-86
2021/08/14 00:34:48;;;;;;;17.27;6.10;;;14.60;99.90;;;;;;5011162;28;20030;-85
2021/08/14 00:37:13;;;;;;;12.90;5.43;;;14.60;99.90;;;;;;5005791;28;20033;-86
2021/08/14 00:39:39;;;;;;;13.02;5.57;;;14.60;99.90;;;;;;5012578;28;20064;-86
2021/08/14 00:42:05;;;;;;;13.18;5.80;;;14.50;99.90;;;;;;5010190;28;20048;-86
2021/08/14 00:44:33;;;;;;;15.20;6.30;;;14.50;99.90;;;;;;5011217;28;20037;-86
2021/08/14 00:46:59;;;;;;;14.45;6.25;;;14.50;99.90;;;;;;5010050;28;20054;-85
2021/08/14 00:49:25;;;;;;;19.05;6.90;;;14.50;99.90;;;;;;5003534;28;20030;-86
2021/08/14 00:51:50;;;;;;;20.58;6.75;;;14.50;99.90;;;;;;5007089;28;20029;-87
2021/08/14 00:54:16;;;;;;;23.30;6.95;;;14.60;99.90;;;;;;5009866;28;20068;-87
2021/08/14 00:56:43;;;;;;;18.40;6.68;;;14.50;99.90;;;;;;5011464;28;20034;-87
2021/08/14 00:59:08;;;;;;;16.42;6.88;;;14.50;99.90;;;;;;5001912;28;20045;-87
2021/08/14 01:01:34;;;;;;;20.45;6.70;;;14.50;99.90;;;;;;5010185;28;20061;-87
2021/08/14 01:04:00;;;;;;;19.73;6.47;;;14.50;99.90;;;;;;5009076;28;20113;-87
2021/08/14 01:06:26;;;;;;;21.00;7.13;;;14.50;99.90;;;;;;5012205;28;20041;-87
2021/08/14 01:08:53;;;;;;;20.73;7.32;;;14.50;99.90;;;;;;5012165;28;20030;-86
2021/08/14 01:11:19;;;;;;;17.88;6.80;;;14.50;99.90;;;;;;5011033;28;20478;-86
2021/08/14 01:13:45;;;;;;;16.13;7.30;;;14.50;99.90;;;;;;5004102;28;20053;-86
2021/08/14 01:16:11;;;;;;;16.23;6.75;;;14.50;99.90;;;;;;5013449;28;20382;-86
2021/08/14 01:18:41;;;;;;;20.45;7.10;;;14.50;99.90;;;;;;5011464;28;20033;-86
2021/08/14 01:21:07;;;;;;;21.75;7.40;;;14.50;99.90;;;;;;5009549;28;20126;-87
2021/08/14 01:23:32;;;;;;;17.67;6.57;;;14.40;99.90;;;;;;5012921;28;20022;-86
2021/08/14 01:26:07;;;;;;;18.25;7.40;;;14.40;99.90;;;;;;5011816;28;20029;-86
2021/08/14 01:28:34;;;;;;;18.38;7.35;;;14.40;99.90;;;;;;5012625;28;20034;-86
2021/08/14 01:31:05;;;;;;;23.70;8.98;;;14.40;99.90;;;;;;5006520;28;20038;-86
2021/08/14 01:33:32;;;;;;;18.75;7.80;;;14.40;99.90;;;;;;5012614;28;20022;-87
2021/08/14 01:35:57;;;;;;;20.55;6.10;;;14.30;99.90;;;;;;5011649;28;20116;-86
2021/08/14 01:38:23;;;;;;;13.77;7.28;;;14.30;99.90;;;;;;5010199;28;20118;-87
2021/08/14 01:40:48;;;;;;;16.85;7.28;;;14.30;99.90;;;;;;5014399;28;20022;-87
2021/08/14 01:43:14;;;;;;;21.52;7.40;;;14.30;99.90;;;;;;5007587;28;20037;-87
2021/08/14 01:45:40;;;;;;;15.88;6.53;;;14.20;99.90;;;;;;5007350;28;20121;-86
2021/08/14 01:48:06;;;;;;;14.25;7.30;;;14.10;99.90;;;;;;5008411;28;20490;-87
2021/08/14 01:50:31;;;;;;;20.23;9.15;;;14.00;99.90;;;;;;5011790;28;20117;-86
2021/08/14 01:53:01;;;;;;;21.38;8.75;;;14.00;99.90;;;;;;5007207;28;20026;-86
2021/08/14 01:55:27;;;;;;;20.23;7.40;;;14.00;99.90;;;;;;5017295;28;20513;-87
2021/08/14 01:57:53;;;;;;;20.58;7.65;;;14.00;99.90;;;;;;5007833;28;20130;-87
2021/08/14 02:00:18;;;;;;;18.20;7.85;;;13.90;99.90;;;;;;5003003;28;20097;-87
2021/08/14 02:02:44;;;;;;;16.63;7.40;;;14.00;99.90;;;;;;5000344;28;20026;-87
2021/08/14 02:05:09;;;;;;;16.33;7.43;;;13.90;99.90;;;;;;5005048;28;20072;-87
2021/08/14 02:07:36;;;;;;;19.80;8.57;;;13.90;99.90;;;;;;5000327;28;20060;-87
2021/08/14 02:10:02;;;;;;;23.80;9.95;;;13.90;99.90;;;;;;5014151;28;20030;-86
2021/08/14 02:12:27;;;;;;;20.70;9.38;;;13.90;99.90;;;;;;5013946;28;20080;-86
2021/08/14 02:14:53;;;;;;;22.08;9.75;;;13.90;99.90;;;;;;5012555;28;20033;-87
2021/08/14 02:17:18;;;;;;;21.20;9.48;;;13.90;99.90;;;;;;5012049;28;20022;-87
2021/08/14 02:19:45;;;;;;;14.45;8.50;;;13.90;99.90;;;;;;5005854;28;20034;-86
2021/08/14 02:22:10;;;;;;;25.60;9.15;;;13.80;99.90;;;;;;5013180;28;20049;-87
2021/08/14 02:24:36;;;;;;;22.35;9.73;;;13.80;99.90;;;;;;5024502;28;20080;-86
2021/08/14 02:27:03;;;;;;;19.95;8.80;;;13.90;99.90;;;;;;5009980;28;20030;-86
2021/08/14 02:29:30;;;;;;;21.77;9.18;;;13.80;99.90;;;;;;5010566;28;20116;-86
2021/08/14 02:31:55;;;;;;;19.92;10.10;;;13.80;99.90;;;;;;5002830;28;20030;-87
2021/08/14 02:34:21;;;;;;;27.50;9.15;;;13.80;99.90;;;;;;5007203;28;20052;-87
2021/08/14 02:36:46;;;;;;;17.05;9.05;;;13.80;99.90;;;;;;5005784;28;20041;-86
2021/08/14 02:39:12;;;;;;;21.58;8.30;;;13.80;99.90;;;;;;5008121;28;20576;-87
2021/08/14 02:41:37;;;;;;;23.92;9.25;;;13.80;99.90;;;;;;5005602;28;20060;-86
2021/08/14 02:44:03;;;;;;;22.38;10.38;;;13.80;99.90;;;;;;5001762;28;20496;-87
2021/08/14 02:46:28;;;;;;;18.40;9.32;;;13.80;99.90;;;;;;5001503;28;20038;-86
2021/08/14 02:48:54;;;;;;;18.15;8.23;;;13.80;99.90;;;;;;5004320;28;20093;-86
2021/08/14 02:51:19;;;;;;;27.63;9.30;;;13.80;99.90;;;;;;5010447;28;20026;-87
2021/08/14 02:53:45;;;;;;;19.38;9.15;;;13.80;99.90;;;;;;5004022;28;20111;-86
2021/08/14 02:56:10;;;;;;;19.67;9.45;;;13.70;99.90;;;;;;5003357;28;20489;-86
2021/08/14 02:58:36;;;;;;;19.33;9.88;;;13.60;99.90;;;;;;5008018;28;20810;-86
2021/08/14 03:01:01;;;;;;;25.42;8.52;;;13.70;99.90;;;;;;5001999;28;20030;-86
2021/08/14 03:03:27;;;;;;;22.45;10.07;;;13.60;99.90;;;;;;5003723;28;20048;-87
2021/08/14 03:05:53;;;;;;;18.13;9.10;;;13.60;99.90;;;;;;4999987;28;20045;-86
2021/08/14 03:08:18;;;;;;;17.83;8.75;;;13.60;99.90;;;;;;5006078;28;20026;-86
2021/08/14 03:10:44;;;;;;;15.93;8.45;;;13.60;99.90;;;;;;5008284;28;20038;-86
2021/08/14 03:13:11;;;;;;;22.17;10.18;;;13.60;99.90;;;;;;5009896;28;20032;-86
2021/08/14 03:15:37;;;;;;;23.45;9.75;;;13.60;99.90;;;;;;5004062;28;20042;-86
2021/08/14 03:18:03;;;;;;;24.13;9.90;;;13.60;99.90;;;;;;5011064;28;20061;-86
2021/08/14 03:20:29;;;;;;;22.63;10.43;;;13.60;99.90;;;;;;5008727;28;20030;-86
2021/08/14 03:22:54;;;;;;;21.00;8.98;;;13.60;99.90;;;;;;5008051;28;20048;-87
2021/08/14 03:25:20;;;;;;;25.73;10.68;;;13.60;99.90;;;;;;5017767;28;20045;-87
2021/08/14 03:27:46;;;;;;;22.23;9.90;;;13.50;99.90;;;;;;5006631;28;20028;-86
2021/08/14 03:30:14;;;;;;;27.02;10.07;;;13.50;99.90;;;;;;5012206;28;20470;-86
2021/08/14 03:32:40;;;;;;;18.20;9.63;;;13.50;99.90;;;;;;5014087;28;20021;-87
2021/08/14 03:35:06;;;;;;;22.02;10.50;;;13.50;99.90;;;;;;5007755;28;20501;-86
2021/08/14 03:37:32;;;;;;;28.85;10.95;;;13.50;99.90;;;;;;5010909;28;20052;-85
2021/08/14 03:39:57;;;;;;;30.00;12.85;;;13.50;99.90;;;;;;5012123;28;20093;-86
2021/08/14 03:42:23;;;;;;;20.70;10.00;;;13.50;99.90;;;;;;5005219;28;20028;-86
2021/08/14 03:44:49;;;;;;;23.58;10.10;;;13.50;99.90;;;;;;5010987;28;20025;-86
2021/08/14 03:47:14;;;;;;;23.13;9.80;;;13.50;99.90;;;;;;5006868;28;20034;-87
2021/08/14 03:49:40;;;;;;;23.27;10.00;;;13.50;99.90;;;;;;5002911;28;20057;-87
2021/08/14 03:52:06;;;;;;;25.73;10.05;;;13.50;99.90;;;;;;5011945;28;20544;-87
2021/08/14 03:54:31;;;;;;;21.95;10.32;;;13.50;99.90;;;;;;5010714;28;20035;-87
2021/08/14 03:56:57;;;;;;;23.90;9.63;;;13.50;99.90;;;;;;5010351;28;20023;-87
2021/08/14 03:59:22;;;;;;;24.90;9.90;;;13.50;99.90;;;;;;5012767;28;20482;-87
2021/08/14 04:01:48;;;;;;;20.17;8.93;;;13.50;99.90;;;;;;5007092;28;20118;-87
2021/08/14 04:04:14;;;;;;;20.58;9.38;;;13.50;99.90;;;;;;5001809;28;20029;-87
2021/08/14 04:06:39;;;;;;;23.13;10.20;;;13.50;99.90;;;;;;5003638;28;20053;-86
2021/08/14 04:09:05;;;;;;;20.27;9.93;;;13.50;99.90;;;;;;5010618;28;20116;-87
2021/08/14 04:11:30;;;;;;;24.90;9.45;;;13.50;99.90;;;;;;5006710;28;20040;-87
2021/08/14 04:13:56;;;;;;;24.50;9.88;;;13.40;99.90;;;;;;5002110;28;20040;-87
2021/08/14 04:16:21;;;;;;;23.08;9.77;;;13.50;99.90;;;;;;5008535;28;20030;-86
2021/08/14 04:18:47;;;;;;;20.77;8.82;;;13.50;99.90;;;;;;5010939;28;20076;-87
2021/08/14 04:21:12;;;;;;;18.42;9.07;;;13.50;99.90;;;;;;5005808;28;20429;-85
2021/08/14 04:23:38;;;;;;;20.60;9.25;;;13.40;99.90;;;;;;5007880;28;20548;-85
2021/08/14 04:26:03;;;;;;;17.33;9.55;;;13.40;99.90;;;;;;5003484;28;20026;-87
2021/08/14 04:28:29;;;;;;;19.60;9.80;;;13.40;99.90;;;;;;5023714;28;20034;-86
2021/08/14 04:30:54;;;;;;;23.38;9.80;;;13.40;99.90;;;;;;5008902;28;20561;-85
2021/08/14 04:33:20;;;;;;;18.30;9.18;;;13.40;99.90;;;;;;5006979;28;20034;-85
2021/08/14 04:35:45;;;;;;;25.35;9.80;;;13.40;99.90;;;;;;5009309;28;20501;-85
2021/08/14 04:38:11;;;;;;;19.85;8.73;;;13.40;99.90;;;;;;5004746;28;20104;-85
2021/08/14 04:40:37;;;;;;;23.92;9.52;;;13.40;99.90;;;;;;5009547;28;20477;-85
2021/08/14 04:43:02;;;;;;;16.40;8.57;;;13.40;99.90;;;;;;5006656;28;20029;-85
2021/08/14 04:45:28;;;;;;;20.58;8.60;;;13.40;99.90;;;;;;5013607;28;20057;-86
2021/08/14 04:47:53;;;;;;;20.77;9.05;;;13.40;99.90;;;;;;5012875;28;20037;-85
2021/08/14 04:50:19;;;;;;;20.52;9.57;;;13.40;99.90;;;;;;5005868;28;20031;-86
2021/08/14 04:52:44;;;;;;;24.70;9.57;;;13.40;99.90;;;;;;5008531;28;20030;-86
2021/08/14 04:55:10;;;;;;;21.80;10.65;;;13.50;99.90;;;;;;5009792;28;20520;-86
2021/08/14 04:57:36;;;;;;;24.33;9.93;;;13.40;99.90;;;;;;5005658;28;20490;-87
2021/08/14 05:00:02;;;;;;;21.55;9.70;;;13.50;99.90;;;;;;5000819;28;20406;-86
2021/08/14 05:02:27;;;;;;;22.38;9.13;;;13.50;99.90;;;;;;5006062;28;20114;-86
2021/08/14 05:04:53;;;;;;;22.90;9.45;;;13.50;99.90;;;;;;5012870;28;20445;-86
2021/08/14 05:07:18;;;;;;;21.35;10.10;;;13.50;99.90;;;;;;5010321;28;20505;-85
2021/08/14 05:09:44;;;;;;;26.80;10.15;;;13.50;99.90;;;;;;5009704;28;20440;-86
2021/08/14 05:12:10;;;;;;;18.50;9.30;;;13.60;99.90;;;;;;5007445;28;20034;-85
2021/08/14 05:14:35;;;;;;;19.00;9.82;;;13.60;99.90;;;;;;5012503;28;20030;-85
2021/08/14 05:17:01;;;;;;;20.40;9.90;;;13.70;99.90;;;;;;5010363;28;20034;-85
2021/08/14 05:19:27;;;;;;;21.33;10.00;;;13.70;99.90;;;;;;5010106;28;20029;-85
2021/08/14 05:21:52;;;;;;;18.95;9.20;;;13.80;99.90;;;;;;5009500;28;20026;-86
2021/08/14 05:24:18;;;;;;;22.33;10.57;;;13.80;99.90;;;;;;5008572;28;20018;-86
2021/08/14 05:26:44;;;;;;;20.58;9.40;;;13.90;99.90;;;;;;5009995;28;20395;-86
2021/08/14 05:29:09;;;;;;;20.15;9.68;;;13.90;99.90;;;;;;5011401;28;20030;-87
2021/08/14 05:31:35;;;;;;;20.48;10.57;;;14.00;99.90;;;;;;5009140;28;20371;-85
2021/08/14 05:34:02;;;;;;;21.50;10.55;;;14.00;99.90;;;;;;5009407;28;20061;-85
2021/08/14 05:36:29;;;;;;;22.20;10.25;;;14.10;99.90;;;;;;5010213;28;20025;-86
2021/08/14 05:38:55;;;;;;;20.00;8.77;;;14.10;99.90;;;;;;5011506;28;20030;-86
2021/08/14 05:41:20;;;;;;;19.95;9.35;;;14.20;99.90;;;;;;5011598;28;20028;-86
2021/08/14 05:43:46;;;;;;;21.13;9.50;;;14.30;99.90;;;;;;5004110;28;20420;-85
2021/08/14 05:46:12;;;;;;;17.90;9.55;;;14.30;99.90;;;;;;5012595;28;20057;-85
2021/08/14 05:48:37;;;;;;;28.13;10.80;;;14.40;99.90;;;;;;5002566;28;20113;-86
2021/08/14 05:51:03;;;;;;;23.73;9.50;;;14.50;99.90;;;;;;5007397;28;20053;-85
2021/08/14 05:53:29;;;;;;;20.13;9.55;;;14.60;99.90;;;;;;5007714;28;20032;-86
2021/08/14 05:55:55;;;;;;;15.85;8.90;;;14.70;99.90;;;;;;5001135;28;20865;-86
2021/08/14 05:58:20;;;;;;;20.80;9.13;;;14.80;99.90;;;;;;5006075;28;20034;-86
2021/08/14 06:00:46;;;;;;;22.70;10.10;;;14.90;99.90;;;;;;5006841;28;20080;-86
2021/08/14 06:03:12;;;;;;;25.52;10.32;;;15.10;99.90;;;;;;5008967;28;20474;-86
2021/08/14 06:05:37;;;;;;;19.60;10.10;;;15.20;99.90;;;;;;5009427;28;20457;-86
2021/08/14 06:08:03;;;;;;;21.98;9.88;;;15.30;99.90;;;;;;5008365;28;20033;-86
2021/08/14 06:10:29;;;;;;;19.42;9.40;;;15.40;99.90;;;;;;5009750;28;20034;-86
2021/08/14 06:12:54;;;;;;;17.42;9.23;;;15.50;99.90;;;;;;5011211;28;20029;-86
2021/08/14 06:15:20;;;;;;;22.13;10.00;;;15.60;99.90;;;;;;5009719;28;20101;-86
2021/08/14 06:17:45;;;;;;;26.98;10.35;;;15.70;99.90;;;;;;5006913;28;20022;-86
2021/08/14 06:20:12;;;;;;;25.55;9.70;;;15.80;99.90;;;;;;5003638;28;20034;-86
2021/08/14 06:22:39;;;;;;;20.80;8.77;;;15.80;99.90;;;;;;5011846;28;20032;-86
2021/08/14 06:25:06;;;;;;;20.10;9.38;;;15.90;99.90;;;;;;5010168;28;20508;-86
2021/08/14 06:27:31;;;;;;;19.95;9.02;;;16.00;99.90;;;;;;5004445;28;20474;-86
2021/08/14 06:29:57;;;;;;;18.83;8.20;;;16.10;99.90;;;;;;5002582;28;20073;-86
2021/08/14 06:32:22;;;;;;;26.80;9.32;;;16.10;99.90;;;;;;5014428;28;20052;-85
2021/08/14 06:34:48;;;;;;;18.67;8.60;;;16.10;99.90;;;;;;5008726;28;20045;-85
2021/08/14 06:37:13;;;;;;;21.70;8.63;;;16.10;99.90;;;;;;5007511;28;20034;-86
2021/08/14 06:39:39;;;;;;;17.67;8.48;;;16.20;99.90;;;;;;5004545;28;20080;-86
2021/08/14 06:42:05;;;;;;;18.50;8.48;;;16.40;99.90;;;;;;5013218;28;20470;-85
2021/08/14 06:44:30;;;;;;;21.35;9.20;;;16.40;99.90;;;;;;5012808;28;20028;-85
2021/08/14 06:46:56;;;;;;;20.83;7.88;;;16.50;99.90;;;;;;5001409;28;20017;-86
2021/08/14 06:49:22;;;;;;;19.35;8.55;;;16.60;99.90;;;;;;5006416;28;20037;-86
2021/08/14 06:51:48;;;;;;;22.33;7.47;;;16.70;99.90;;;;;;5006189;28;20053;-86
2021/08/14 06:54:13;;;;;;;22.15;8.38;;;16.80;99.90;;;;;;5013639;28;20113;-86
2021/08/14 06:56:39;;;;;;;17.40;8.02;;;16.80;99.80;;;;;;4999478;28;20022;-85
2021/08/14 06:59:04;;;;;;;19.85;8.95;;;16.90;99.70;;;;;;5009865;28;20026;-87
2021/08/14 07:01:30;;;;;;;26.25;9.77;;;17.00;99.50;;;;;;5007583;28;20027;-88
2021/08/14 07:03:55;;;;;;;20.77;8.57;;;17.10;99.40;;;;;;5010559;28;20033;-88
2021/08/14 07:06:22;;;;;;;21.67;7.85;;;17.10;99.30;;;;;;5009692;28;20053;-87
2021/08/14 07:08:48;;;;;;;20.83;8.15;;;17.20;99.20;;;;;;5009295;28;20082;-88
2021/08/14 07:11:14;;;;;;;19.38;7.38;;;17.40;99.00;;;;;;5006682;28;20030;-87
2021/08/14 07:13:40;;;;;;;23.08;8.90;;;17.40;98.80;;;;;;5011665;28;20101;-87
2021/08/14 07:16:06;;;;;;;20.67;8.15;;;17.50;98.70;;;;;;5011504;28;20034;-87
2021/08/14 07:18:31;;;;;;;22.30;7.95;;;17.50;98.50;;;;;;5011927;28;20033;-87
2021/08/14 07:20:57;;;;;;;18.63;6.95;;;17.60;98.50;;;;;;5010502;28;20030;-86
2021/08/14 07:23:22;;;;;;;20.33;7.78;;;17.70;98.40;;;;;;5008102;28;20097;-86
2021/08/14 07:25:50;;;;;;;18.73;8.13;;;17.80;98.30;;;;;;5012655;28;20075;-86
2021/08/14 07:28:16;;;;;;;16.83;7.63;;;17.90;98.10;;;;;;5011451;28;20057;-86
2021/08/14 07:30:42;;;;;;;22.60;9.40;;;18.00;98.00;;;;;;5012605;28;20526;-86
2021/08/14 07:33:07;;;;;;;22.50;8.13;;;18.00;97.80;;;;;;5005489;28;20043;-86
2021/08/14 07:35:33;;;;;;;20.33;8.23;;;18.00;97.70;;;;;;5006274;28;20041;-86
2021/08/14 07:37:58;;;;;;;27.08;7.93;;;18.10;97.70;;;;;;5010517;28;20108;-87
2021/08/14 07:40:25;;;;;;;18.13;7.18;;;18.20;97.60;;;;;;5010880;28;20379;-87
2021/08/14 07:42:51;;;;;;;19.52;7.93;;;18.20;97.70;;;;;;5007715;28;20022;-87
2021/08/14 07:45:19;;;;;;;20.17;8.30;;;18.30;97.60;;;;;;5014281;28;20072;-87
2021/08/14 07:47:47;;;;;;;23.20;8.90;;;18.40;97.50;;;;;;5005171;28;20028;-87
2021/08/14 07:50:20;;;;;;;24.80;8.65;;;18.50;97.20;;;;;;5010687;28;20057;-86
2021/08/14 07:52:45;;;;;;;21.35;7.78;;;18.60;97.10;;;;;;5010767;28;20490;-87
2021/08/14 07:55:11;;;;;;;19.52;7.95;;;18.70;97.10;;;;;;5004581;28;20046;-87
2021/08/14 07:57:41;;;;;;;17.48;7.53;;;18.80;97.00;;;;;;5002727;28;20023;-87
2021/08/14 08:00:10;;;;;;;21.13;8.77;;;18.90;96.90;;;;;;5009588;28;20124;-87
2021/08/14 08:02:36;;;;;;;23.63;8.85;;;19.00;96.50;;;;;;5013676;28;20076;-87
2021/08/14 08:05:02;;;;;;;28.38;8.57;;;19.00;96.20;;;;;;4999225;28;20034;-87
2021/08/14 08:07:28;;;;;;;22.63;8.38;;;19.10;96.10;;;;;;5012113;28;20049;-87
2021/08/14 08:09:54;;;;;;;22.05;8.55;;;19.10;96.10;;;;;;5004353;28;20137;-86
2021/08/14 08:12:19;;;;;;;27.33;9.40;;;19.20;95.90;;;;;;5005684;28;20026;-87
2021/08/14 08:14:45;;;;;;;27.20;9.40;;;19.20;95.80;;;;;;5014314;28;20034;-87
2021/08/14 08:17:10;;;;;;;21.77;8.02;;;19.20;95.70;;;;;;5013691;28;20433;-87
2021/08/14 08:19:36;;;;;;;20.38;8.35;;;19.20;95.90;;;;;;5014358;28;20025;-86
2021/08/14 08:22:01;;;;;;;21.42;8.82;;;19.40;95.90;;;;;;5008843;28;20512;-86
2021/08/14 08:24:27;;;;;;;19.83;8.88;;;19.50;95.80;;;;;;5008502;28;20022;-87
2021/08/14 08:26:52;;;;;;;26.67;9.65;;;19.50;95.30;;;;;;5008362;28;20049;-86
2021/08/14 08:29:18;;;;;;;19.00;8.32;;;19.50;95.20;;;;;;5015921;28;20037;-86
2021/08/14 08:31:43;;;;;;;23.08;9.45;;;19.60;95.40;;;;;;5015667;28;20037;-86
2021/08/14 08:34:09;;;;;;;22.63;9.45;;;19.60;95.30;;;;;;5009520;28;20042;-86
2021/08/14 08:36:34;;;;;;;25.38;9.88;;;19.70;95.20;;;;;;5007044;28;20034;-86
2021/08/14 08:39:00;;;;;;;22.25;10.00;;;19.70;95.20;;;;;;5001272;28;20037;-86
2021/08/14 08:41:26;;;;;;;23.90;10.73;;;19.60;95.00;;;;;;5001701;28;20098;-86
2021/08/14 08:43:51;;;;;;;25.42;10.95;;;19.60;95.10;;;;;;5014754;28;20474;-86
2021/08/14 08:46:19;;;;;;;29.13;12.85;;;19.60;95.10;;;;;;5015610;28;20033;-86
2021/08/14 08:48:49;;;;;;;31.85;14.52;;;19.60;95.00;;;;;;5013717;28;20551;-86
2021/08/14 08:51:19;;;;;;;31.48;15.45;;;19.70;95.10;;;;;;5007503;28;20048;-86
2021/08/14 08:53:45;;;;;;;36.30;16.85;;;19.70;95.20;;;;;;5006099;28;20275;-86
2021/08/14 08:56:10;;;;;;;34.50;17.13;;;19.90;95.10;;;;;;5009911;28;20038;-86
2021/08/14 08:58:36;;;;;;;40.63;18.10;;;19.90;95.00;;;;;;5002627;28;20018;-85
2021/08/14 09:01:02;;;;;;;32.92;15.85;;;19.90;95.20;;;;;;5001739;28;20026;-86
2021/08/14 09:03:30;;;;;;;32.65;16.83;;;20.00;95.10;;;;;;5009715;28;20114;-85
2021/08/14 09:05:56;;;;;;;43.72;20.23;;;20.10;95.00;;;;;;5008266;28;20061;-90
2021/08/14 09:08:22;;;;;;;36.40;17.77;;;20.10;95.10;;;;;;5009957;28;20034;-90
2021/08/14 09:10:49;;;;;;;41.88;19.38;;;20.10;95.00;;;;;;5012622;28;20025;-89
2021/08/14 09:13:19;;;;;;;37.30;18.10;;;20.30;94.90;;;;;;5007203;28;20026;-90
2021/08/14 09:15:46;;;;;;;38.70;19.17;;;20.40;94.90;;;;;;5014980;28;20479;-90
2021/08/14 09:18:14;;;;;;;37.67;21.10;;;20.40;94.60;;;;;;5014010;28;20076;-90
2021/08/14 09:20:54;;;;;;;40.42;21.38;;;20.50;94.50;;;;;;5008826;28;20033;-91
2021/08/14 09:23:24;;;;;;;34.30;20.40;;;20.50;94.30;;;;;;5013375;28;20422;-90
2021/08/14 09:25:54;;;;;;;43.15;20.13;;;20.50;94.20;;;;;;5011772;28;20034;-91
2021/08/14 09:28:32;;;;;;;38.80;19.33;;;20.50;94.20;;;;;;5012083;28;20064;-90
2021/08/14 09:31:00;;;;;;;38.10;19.95;;;20.50;94.20;;;;;;5008786;28;20159;-89
2021/08/14 09:33:28;;;;;;;32.28;18.92;;;20.50;94.00;;;;;;5009037;28;20033;-90
2021/08/14 09:36:08;;;;;;;32.95;17.38;;;20.60;93.90;;;;;;5009866;28;20120;-90
2021/08/14 09:38:40;;;;;;;31.90;16.55;;;20.50;93.20;;;;;;5009382;28;20034;-90
2021/08/14 09:41:07;;;;;;;26.73;15.40;;;20.50;93.20;;;;;;5006738;28;20030;-90
2021/08/14 09:43:34;;;;;;;32.67;16.27;;;20.50;93.20;;;;;;5012181;28;20381;-89
2021/08/14 09:46:00;;;;;;;34.00;16.33;;;20.50;93.00;;;;;;5010257;28;20387;-90
2021/08/14 09:48:26;;;;;;;33.22;16.35;;;20.50;93.00;;;;;;5011889;28;20033;-89
2021/08/14 09:50:52;;;;;;;27.92;15.52;;;20.50;92.90;;;;;;5006727;28;20022;-91
2021/08/14 09:53:19;;;;;;;30.90;16.40;;;20.50;92.90;;;;;;5015688;28;20110;-90
2021/08/14 09:55:47;;;;;;;35.58;16.20;;;20.50;93.00;;;;;;5006979;28;20034;-91
2021/08/14 09:58:15;;;;;;;26.90;15.07;;;20.60;92.80;;;;;;5008086;28;20030;-88
2021/08/14 10:00:43;;;;;;;32.42;16.20;;;20.60;92.40;;;;;;5004064;28;20118;-89
2021/08/14 10:03:13;;;;;;;28.63;14.93;;;20.50;92.50;;;;;;5003244;28;20029;-89
2021/08/14 10:05:39;;;;;;;31.30;15.18;;;20.40;92.60;;;;;;5014755;28;20103;-90
2021/08/14 10:08:05;;;;;;;29.35;14.85;;;20.40;92.60;;;;;;5007828;28;20029;-89
2021/08/14 10:10:32;;;;;;;30.17;16.08;;;20.40;92.20;;;;;;5014931;28;20053;-88
2021/08/14 10:12:59;;;;;;;35.03;15.93;;;20.40;92.00;;;;;;5015900;28;20137;-89
2021/08/14 10:15:25;;;;;;;23.42;13.73;;;20.30;92.40;;;;;;5010614;28;20038;-89
2021/08/14 10:17:51;;;;;;;32.15;15.07;;;20.20;92.20;;;;;;5013595;28;20544;-88
2021/08/14 10:20:16;;;;;;;30.65;14.82;;;20.30;92.70;;;;;;5010224;28;20028;-89
2021/08/14 10:22:44;;;;;;;34.78;16.33;;;20.50;92.70;;;;;;5012825;28;20045;-86
2021/08/14 10:25:18;;;;;;;33.08;14.77;;;20.60;92.60;;;;;;5006257;28;20061;-87
2021/08/14 10:27:54;;;;;;;33.72;16.42;;;20.70;92.50;;;;;;5010844;28;20057;-87
2021/08/14 10:30:46;;;;;;;34.75;16.48;;;20.80;92.20;;;;;;5007738;28;20033;-88
2021/08/14 10:33:36;;;;;;;30.50;16.02;;;20.90;92.00;;;;;;5007627;28;20057;-88
2021/08/14 10:36:17;;;;;;;32.28;17.08;;;21.10;92.00;;;;;;4999136;28;20052;-88
2021/08/14 10:38:45;;;;;;;29.13;16.92;;;21.20;92.40;;;;;;5007084;28;20129;-89
2021/08/14 10:41:11;;;;;;;30.83;15.27;;;21.10;91.90;;;;;;5008619;28;20084;-89
2021/08/14 10:43:54;;;;;;;35.10;16.98;;;21.10;91.80;;;;;;5010271;28;20018;-88
2021/08/14 10:46:47;;;;;;;35.30;17.73;;;21.00;92.10;;;;;;5012702;28;20106;-90
2021/08/14 10:49:21;;;;;;;32.83;17.08;;;20.80;92.00;;;;;;5006226;28;20034;-88
2021/08/14 10:51:50;;;;;;;27.85;15.07;;;20.60;92.40;;;;;;5006863;28;20096;-89
2021/08/14 10:54:42;;;;;;;29.85;16.15;;;20.50;92.50;;;;;;5011789;28;20042;-86
2021/08/14 10:57:08;;;;;;;23.40;12.98;;;20.70;92.50;;;;;;5010760;28;20041;-88
2021/08/14 10:59:40;;;;;;;24.23;13.52;;;20.60;92.20;;;;;;5005225;28;20052;-88
2021/08/14 11:02:28;;;;;;;20.65;13.38;;;20.60;92.50;;;;;;5010468;28;20018;-89
2021/08/14 11:04:58;;;;;;;22.75;12.38;;;20.70;92.70;;;;;;5005351;28;20065;-88
2021/08/14 11:07:23;;;;;;;28.67;15.43;;;21.00;92.40;;;;;;5012054;28;20029;-89
2021/08/14 11:10:11;;;;;;;25.15;13.73;;;21.10;92.10;;;;;;5004175;28;20037;-89
2021/08/14 11:12:49;;;;;;;28.92;14.57;;;21.10;92.10;;;;;;4999925;28;20019;-88
2021/08/14 11:15:18;;;;;;;18.63;11.50;;;21.20;91.90;;;;;;5002912;28;20064;-89
2021/08/14 11:17:46;;;;;;;20.45;12.25;;;21.30;92.10;;;;;;5019331;28;20105;-83
2021/08/14 11:20:20;;;;;;;21.52;12.57;;;21.40;91.90;;;;;;5007680;28;20037;-83
2021/08/14 11:22:54;;;;;;;20.75;11.23;;;21.60;91.60;;;;;;5005790;28;20025;-83
2021/08/14 11:25:40;;;;;;;17.52;11.02;;;21.70;91.60;;;;;;5008720;28;20060;-83
2021/08/14 11:28:11;;;;;;;21.88;10.40;;;21.80;91.00;;;;;;4999996;28;20026;-83
2021/08/14 11:30:43;;;;;;;18.55;10.60;;;21.70;90.90;;;;;;5009748;28;20475;-83
2021/08/14 11:33:10;;;;;;;16.83;9.57;;;21.80;90.90;;;;;;5012501;28;20122;-83
2021/08/14 11:35:37;;;;;;;17.63;9.60;;;22.00;90.80;;;;;;5012923;28;20140;-84
2021/08/14 11:38:11;;;;;;;17.83;9.50;;;22.10;90.60;;;;;;5006552;28;20037;-84
2021/08/14 11:40:39;;;;;;;15.27;8.45;;;22.40;90.40;;;;;;5005983;28;20146;-83
2021/08/14 11:43:10;;;;;;;19.80;10.25;;;22.70;90.00;;;;;;5009927;28;20022;-84
2021/08/14 11:45:38;;;;;;;15.65;8.43;;;22.70;88.30;;;;;;5001521;28;20060;-83
2021/08/14 11:48:06;;;;;;;18.17;9.25;;;22.70;88.40;;;;;;5011955;28;20601;-84
2021/08/14 11:50:40;;;;;;;15.60;8.30;;;22.60;87.80;;;;;;5012869;28;20026;-83
2021/08/14 11:53:08;;;;;;;13.48;7.80;;;22.40;88.60;;;;;;5012597;28;20037;-84
2021/08/14 11:55:34;;;;;;;15.93;8.43;;;22.40;88.40;;;;;;5011717;28;20174;-83
2021/08/14 11:57:59;;;;;;;14.30;8.43;;;22.40;87.90;;;;;;5016968;28;20077;-84
2021/08/14 12:00:35;;;;;;;17.25;7.97;;;22.40;88.30;;;;;;5012169;28;20086;-84
2021/08/14 12:03:09;;;;;;;13.90;8.15;;;22.40;87.80;;;;;;5010631;28;20795;-83
2021/08/14 12:05:41;;;;;;;17.27;9.52;;;22.50;88.60;;;;;;5008693;28;20120;-83
2021/08/14 12:08:08;;;;;;;16.02;8.95;;;22.60;88.10;;;;;;5011203;28;20030;-83
2021/08/14 12:10:35;;;;;;;14.80;8.48;;;22.70;87.10;;;;;;5013203;28;20026;-83
2021/08/14 12:13:03;;;;;;;16.73;9.05;;;22.70;87.30;;;;;;5013119;28;20379;-84
2021/08/14 12:15:34;;;;;;;18.50;8.18;;;22.70;86.60;;;;;;5014676;28;20045;-83
2021/08/14 12:18:00;;;;;;;18.42;9.25;;;22.90;86.40;;;;;;5012954;28;20049;-83
2021/08/14 12:20:30;;;;;;;15.18;8.32;;;22.80;86.10;;;;;;5013246;28;20478;-83
2021/08/14 12:23:19;;;;;;;19.60;7.47;;;22.80;86.10;;;;;;5015376;28;20029;-83
2021/08/14 12:26:22;;;;;;;17.73;7.07;;;22.80;86.10;;;;;;5002494;28;20076;-83
2021/08/14 12:29:02;;;;;;;12.15;6.82;;;22.90;85.60;;;;;;5014467;28;20022;-84
2021/08/14 12:31:28;;;;;;;14.77;7.32;;;22.90;85.50;;;;;;5002370;28;20037;-84
2021/08/14 12:33:58;;;;;;;16.98;9.50;;;22.90;85.90;;;;;;5007785;28;20105;-84